Time;durP1;ratioP1;P1;durP2;ratioP2;P2;SDS_P1;SDS_P2;PMS_P1;PMS_P2;Temp;Humidity;BMP_temperature;BMP_pressure;BME280_temperature;BME280_humidity;BME280_pressure;Samples;Min_cycle;Max_cycle;Signal;HPM_P1;HPM_P2
2022/04/06 00:02:25;;;;;;;1.30;1.20;;;22.10;52.50;;;;;;5073029;28;20440;-87
2022/04/06 00:04:52;;;;;;;1.63;1.53;;;22.00;52.40;;;;;;5075997;28;20443;-87
2022/04/06 00:07:19;;;;;;;1.30;1.20;;;22.20;52.60;;;;;;5076852;28;20846;-87
2022/04/06 00:09:46;;;;;;;1.73;1.13;;;22.00;52.40;;;;;;5076755;28;20487;-87
2022/04/06 00:12:13;;;;;;;1.30;1.20;;;22.00;52.40;;;;;;5077030;28;20451;-87
2022/04/06 00:14:41;;;;;;;1.60;1.10;;;22.00;52.40;;;;;;5076815;28;20439;-87
2022/04/06 00:17:08;;;;;;;1.23;1.10;;;22.00;52.40;;;;;;5076860;28;20920;-87
2022/04/06 00:19:36;;;;;;;1.20;1.10;;;22.00;52.40;;;;;;5076560;28;20444;-87
2022/04/06 00:22:04;;;;;;;1.30;1.13;;;22.00;52.40;;;;;;5076676;28;20448;-87
2022/04/06 00:24:31;;;;;;;1.23;1.10;;;22.00;52.40;;;;;;5076226;28;20445;-87
2022/04/06 00:26:57;;;;;;;1.50;1.40;;;22.00;52.50;;;;;;5076686;28;20441;-87
2022/04/06 00:29:24;;;;;;;1.30;1.20;;;22.00;52.40;;;;;;5076414;28;20939;-87
2022/04/06 00:31:52;;;;;;;2.07;1.40;;;22.00;52.40;;;;;;5076658;28;20452;-86
2022/04/06 00:34:19;;;;;;;1.33;1.23;;;22.00;52.40;;;;;;5076426;28;20444;-86
2022/04/06 00:36:46;;;;;;;1.30;1.20;;;22.00;52.50;;;;;;5076292;28;20447;-87
2022/04/06 00:39:13;;;;;;;1.30;1.20;;;22.00;52.40;;;;;;5076363;28;20934;-87
2022/04/06 00:41:40;;;;;;;1.20;1.10;;;22.20;53.10;;;;;;5076437;28;20538;-87
2022/04/06 00:44:12;;;;;;;1.03;0.93;;;22.00;52.40;;;;;;5076234;28;20444;-87
2022/04/06 00:46:39;;;;;;;1.27;1.07;;;22.00;52.40;;;;;;5076311;28;20436;-87
2022/04/06 00:49:11;;;;;;;1.40;1.30;;;22.00;52.40;;;;;;5076106;28;20451;-87
2022/04/06 00:51:39;;;;;;;1.40;1.27;;;22.00;52.40;;;;;;5076446;28;20456;-87
2022/04/06 00:54:07;;;;;;;2.33;1.40;;;22.00;52.40;;;;;;5076101;28;20498;-87
2022/04/06 00:56:34;;;;;;;1.27;1.17;;;22.00;52.40;;;;;;5076148;28;20449;-86
2022/04/06 00:59:02;;;;;;;1.30;1.20;;;22.00;52.40;;;;;;5075983;28;20441;-87
2022/04/06 01:01:29;;;;;;;1.30;1.20;;;22.00;52.40;;;;;;5075916;28;20484;-87
2022/04/06 01:03:56;;;;;;;1.53;1.43;;;22.20;52.50;;;;;;5075814;28;20448;-87
2022/04/06 01:06:24;;;;;;;1.30;1.20;;;22.00;52.40;;;;;;5075805;28;20445;-87
2022/04/06 01:08:52;;;;;;;1.30;1.20;;;22.00;52.40;;;;;;5075706;28;20800;-87
2022/04/06 01:11:20;;;;;;;1.47;1.30;;;22.10;52.40;;;;;;5075901;28;20487;-87
2022/04/06 01:13:47;;;;;;;1.30;1.20;;;22.00;52.90;;;;;;5075812;28;20928;-87
2022/04/06 01:16:42;;;;;;;1.03;0.93;;;22.00;52.40;;;;;;5074338;28;20445;-87
2022/04/06 01:19:08;;;;;;;1.50;1.40;;;22.00;52.40;;;;;;5075747;28;20444;-87
2022/04/06 01:21:37;;;;;;;1.70;1.60;;;22.00;52.40;;;;;;5075689;28;20489;-86
2022/04/06 01:24:06;;;;;;;1.37;1.27;;;22.00;52.40;;;;;;5075908;28;20974;-86
2022/04/06 01:26:34;;;;;;;1.53;1.43;;;22.00;52.40;;;;;;5075722;28;20457;-87
2022/04/06 01:29:01;;;;;;;1.50;1.00;;;22.00;52.40;;;;;;5075663;28;20444;-87
2022/04/06 01:31:28;;;;;;;1.30;0.97;;;22.10;52.50;;;;;;5075672;28;20441;-86
2022/04/06 01:33:54;;;;;;;1.23;1.13;;;22.00;52.50;;;;;;5075744;28;20445;-87
2022/04/06 01:36:21;;;;;;;1.30;1.07;;;21.90;52.30;;;;;;5075681;28;20640;-87
2022/04/06 01:38:48;;;;;;;1.30;1.20;;;22.00;52.50;;;;;;5075409;28;20445;-87
2022/04/06 01:41:16;;;;;;;1.43;1.23;;;22.00;52.40;;;;;;5075454;28;20483;-87
2022/04/06 01:43:43;;;;;;;1.20;1.10;;;22.00;52.40;;;;;;5075541;28;20449;-87
2022/04/06 01:46:09;;;;;;;1.80;1.43;;;22.00;52.40;;;;;;5075390;28;20436;-87
2022/04/06 01:52:11;;;;;;;1.10;1.00;;;21.90;52.30;;;;;;5075133;28;20794;-87
2022/04/06 01:54:06;;;;;;;1.40;1.20;;;22.00;52.40;;;;;;5034308;28;20837;-87
2022/04/06 01:56:34;;;;;;;1.83;1.30;;;21.90;52.30;;;;;;5075344;28;20471;-87
2022/04/06 01:59:01;;;;;;;1.93;1.50;;;21.90;52.30;;;;;;5075065;28;20448;-86
2022/04/06 02:01:28;;;;;;;1.23;1.13;;;22.00;52.40;;;;;;5075156;28;20488;-87
2022/04/06 02:03:55;;;;;;;1.20;1.07;;;22.00;52.40;;;;;;5075493;28;20445;-87
2022/04/06 02:06:21;;;;;;;1.47;1.37;;;21.90;52.30;;;;;;5075310;28;20441;-87
2022/04/06 02:08:48;;;;;;;1.67;1.37;;;21.90;52.30;;;;;;5075052;28;20433;-87
2022/04/06 02:11:16;;;;;;;1.17;1.07;;;22.00;52.40;;;;;;5074492;28;20485;-87
2022/04/06 02:13:44;;;;;;;1.53;1.43;;;21.90;52.30;;;;;;5075048;28;20425;-87
2022/04/06 02:16:10;;;;;;;3.00;1.30;;;21.90;52.30;;;;;;5074950;28;20445;-87
2022/04/06 02:18:38;;;;;;;1.40;1.30;;;21.90;52.30;;;;;;5074549;28;20443;-87
2022/04/06 02:21:04;;;;;;;1.87;1.40;;;21.90;52.30;;;;;;5074682;28;20496;-87
2022/04/06 02:23:31;;;;;;;1.40;1.00;;;21.90;52.30;;;;;;5074496;28;20939;-87
2022/04/06 02:25:58;;;;;;;1.10;0.90;;;21.90;52.30;;;;;;5074626;28;20457;-86
2022/04/06 02:28:25;;;;;;;1.20;1.10;;;21.90;52.20;;;;;;5073685;28;20437;-86
2022/04/06 02:30:53;;;;;;;1.60;1.00;;;21.90;52.30;;;;;;5074470;28;20483;-87
2022/04/06 02:33:19;;;;;;;1.10;1.00;;;21.90;52.30;;;;;;5074668;28;20448;-87
2022/04/06 02:35:46;;;;;;;1.23;1.13;;;21.90;52.30;;;;;;5074413;28;20448;-86
2022/04/06 02:38:13;;;;;;;1.27;1.17;;;21.90;52.20;;;;;;5074580;28;20440;-87
2022/04/06 02:40:40;;;;;;;1.20;1.10;;;22.00;52.40;;;;;;5074311;28;20476;-87
2022/04/06 02:43:06;;;;;;;1.33;1.07;;;21.90;52.30;;;;;;5074248;28;21026;-87
2022/04/06 02:45:33;;;;;;;1.17;1.07;;;21.90;52.30;;;;;;5074550;28;20468;-86
2022/04/06 02:48:01;;;;;;;1.27;1.17;;;21.90;52.20;;;;;;5074142;28;20808;-87
2022/04/06 02:50:28;;;;;;;1.20;1.10;;;21.90;52.30;;;;;;5074186;28;20793;-86
2022/04/06 02:52:57;;;;;;;2.17;1.20;;;21.90;52.30;;;;;;5073992;28;20451;-87
2022/04/06 02:55:23;;;;;;;1.00;0.90;;;22.10;52.40;;;;;;5074213;28;20493;-87
2022/04/06 02:57:50;;;;;;;1.37;1.00;;;22.00;52.30;;;;;;5073929;28;20915;-87
2022/04/06 03:00:18;;;;;;;1.77;1.10;;;21.90;52.20;;;;;;5074217;28;20449;-87
2022/04/06 03:02:46;;;;;;;1.40;1.30;;;21.90;52.30;;;;;;5073854;28;20457;-87
2022/04/06 03:05:14;;;;;;;1.00;0.90;;;21.90;52.30;;;;;;5074007;28;20528;-87
2022/04/06 03:07:41;;;;;;;1.10;0.90;;;21.90;52.30;;;;;;5074066;28;20437;-87
2022/04/06 03:10:08;;;;;;;1.40;1.20;;;21.90;52.20;;;;;;5073838;28;20468;-87
2022/04/06 03:12:35;;;;;;;1.23;1.13;;;21.90;52.20;;;;;;5073652;28;20456;-87
2022/04/06 03:15:02;;;;;;;1.10;0.97;;;21.90;52.20;;;;;;5073957;28;20790;-87
2022/04/06 03:17:29;;;;;;;1.10;1.00;;;21.90;52.20;;;;;;5073644;28;20445;-87
2022/04/06 03:19:55;;;;;;;1.50;1.03;;;21.90;52.30;;;;;;5073806;28;20437;-87
2022/04/06 03:22:23;;;;;;;1.67;1.10;;;21.80;52.20;;;;;;5073478;28;20496;-87
2022/04/06 03:24:50;;;;;;;1.07;0.90;;;21.90;52.20;;;;;;5073713;28;20457;-86
2022/04/06 03:27:17;;;;;;;1.20;1.10;;;21.80;52.20;;;;;;5073533;28;20448;-87
2022/04/06 03:29:44;;;;;;;5.70;1.20;;;21.90;52.30;;;;;;5073769;28;20445;-86
2022/04/06 03:32:11;;;;;;;2.23;0.93;;;21.80;52.20;;;;;;5073681;28;20441;-87
2022/04/06 03:34:37;;;;;;;1.13;1.03;;;21.80;52.20;;;;;;5073420;28;20447;-87
2022/04/06 03:37:05;;;;;;;1.30;1.20;;;21.90;52.30;;;;;;5073668;28;20449;-87
2022/04/06 03:39:33;;;;;;;1.47;1.33;;;21.90;52.30;;;;;;5073184;28;20448;-87
2022/04/06 03:42:00;;;;;;;1.10;1.00;;;21.90;52.20;;;;;;5073484;28;20480;-87
2022/04/06 03:44:27;;;;;;;1.20;1.10;;;21.80;52.20;;;;;;5073562;28;20437;-87
2022/04/06 03:46:56;;;;;;;1.30;1.20;;;22.00;52.30;;;;;;5073533;28;20448;-87
2022/04/06 03:49:23;;;;;;;1.00;0.90;;;21.80;52.20;;;;;;5073442;28;21003;-87
2022/04/06 03:51:49;;;;;;;1.40;1.10;;;21.80;52.10;;;;;;5073395;28;20436;-87
2022/04/06 03:54:16;;;;;;;1.20;1.10;;;21.80;52.10;;;;;;5073339;28;20449;-87
2022/04/06 03:56:44;;;;;;;1.30;1.20;;;21.80;52.10;;;;;;5073551;28;20469;-87
2022/04/06 03:59:11;;;;;;;1.60;1.40;;;21.90;52.20;;;;;;5073242;28;20437;-87
2022/04/06 04:01:38;;;;;;;1.10;1.00;;;22.00;52.30;;;;;;5073324;28;20812;-87
2022/04/06 04:04:05;;;;;;;1.10;1.00;;;21.80;52.20;;;;;;5073426;28;20952;-86
2022/04/06 04:06:32;;;;;;;1.10;0.97;;;21.90;52.20;;;;;;5073310;28;20840;-87
2022/04/06 04:08:59;;;;;;;1.20;1.10;;;21.80;52.20;;;;;;5073076;28;20924;-87
2022/04/06 04:11:25;;;;;;;1.17;1.00;;;21.80;52.20;;;;;;5073002;28;20484;-86
2022/04/06 04:13:54;;;;;;;1.40;0.90;;;21.90;52.20;;;;;;5073083;28;20445;-87
2022/04/06 04:16:20;;;;;;;1.20;0.80;;;21.80;52.10;;;;;;5073083;28;20441;-87
2022/04/06 04:18:47;;;;;;;1.17;1.03;;;21.80;52.10;;;;;;5072933;28;20954;-87
2022/04/06 04:21:32;;;;;;;1.37;0.97;;;21.80;52.10;;;;;;5072895;28;20475;-87
2022/04/06 04:23:59;;;;;;;1.67;1.10;;;21.80;52.20;;;;;;5073395;28;20456;-87
2022/04/06 04:26:26;;;;;;;1.30;1.10;;;21.80;52.20;;;;;;5073160;28;20465;-87
2022/04/06 04:28:54;;;;;;;1.37;1.17;;;21.90;52.20;;;;;;5072953;28;20452;-87
2022/04/06 04:31:21;;;;;;;1.10;1.00;;;21.80;52.20;;;;;;5073231;28;20449;-86
2022/04/06 04:33:48;;;;;;;1.20;1.00;;;21.80;52.20;;;;;;5072929;28;20437;-87
2022/04/06 04:36:15;;;;;;;1.53;1.00;;;21.80;52.20;;;;;;5073446;28;20452;-87
2022/04/06 04:38:42;;;;;;;1.20;1.00;;;21.80;52.20;;;;;;5073047;28;20451;-87
2022/04/06 04:41:09;;;;;;;1.27;1.07;;;21.80;52.10;;;;;;5072882;28;20488;-87
2022/04/06 04:43:36;;;;;;;1.20;1.00;;;21.80;52.20;;;;;;5073099;28;20441;-87
2022/04/06 04:46:05;;;;;;;1.50;1.17;;;21.80;52.20;;;;;;5072740;28;20544;-87
2022/04/06 04:48:32;;;;;;;1.20;1.03;;;21.80;52.20;;;;;;5072710;28;20444;-87
2022/04/06 04:50:59;;;;;;;1.20;1.10;;;21.80;52.20;;;;;;5074180;28;20946;-87
2022/04/06 04:53:26;;;;;;;1.10;0.90;;;21.80;52.20;;;;;;5076271;28;20451;-86
2022/04/06 04:55:54;;;;;;;1.30;1.00;;;21.80;52.20;;;;;;5076408;28;20871;-87
2022/04/06 04:58:21;;;;;;;1.10;1.00;;;21.80;52.20;;;;;;5076051;28;20436;-87
2022/04/06 05:00:48;;;;;;;1.33;1.23;;;21.90;52.20;;;;;;5076285;28;20956;-87
2022/04/06 05:03:16;;;;;;;1.20;1.00;;;21.80;52.10;;;;;;5076032;28;20932;-86
2022/04/06 05:05:44;;;;;;;1.10;0.80;;;21.80;52.20;;;;;;5076283;28;20441;-87
2022/04/06 05:08:11;;;;;;;1.10;0.90;;;21.80;52.20;;;;;;5076304;28;20437;-87
2022/04/06 05:10:38;;;;;;;1.10;0.90;;;21.80;52.10;;;;;;5075870;28;20998;-86
2022/04/06 05:13:05;;;;;;;1.40;1.00;;;21.80;52.10;;;;;;5076030;28;20449;-87
2022/04/06 05:15:32;;;;;;;1.23;1.13;;;21.80;52.10;;;;;;5076033;28;20441;-87
2022/04/06 05:17:59;;;;;;;1.00;0.70;;;21.80;52.10;;;;;;5075822;28;20464;-87
2022/04/06 05:20:27;;;;;;;1.10;0.83;;;21.80;52.10;;;;;;5075823;28;20815;-86
2022/04/06 05:22:54;;;;;;;1.97;0.90;;;21.80;52.10;;;;;;5075782;28;20489;-86
2022/04/06 05:25:21;;;;;;;1.30;1.00;;;21.80;52.10;;;;;;5075688;28;20476;-86
2022/04/06 05:27:49;;;;;;;1.20;0.90;;;21.80;52.10;;;;;;5075413;28;20469;-87
2022/04/06 05:30:17;;;;;;;1.00;0.87;;;21.80;52.10;;;;;;5075742;28;20441;-87
2022/04/06 05:32:45;;;;;;;1.10;1.00;;;21.80;52.10;;;;;;5075602;28;20445;-87
2022/04/06 05:35:13;;;;;;;1.10;0.90;;;21.80;52.20;;;;;;5075803;28;20433;-87
2022/04/06 05:37:43;;;;;;;1.10;0.90;;;21.80;52.10;;;;;;5075639;28;20456;-87
2022/04/06 05:40:11;;;;;;;1.30;0.90;;;21.80;52.10;;;;;;5075637;28;20452;-87
2022/04/06 05:42:39;;;;;;;1.13;1.00;;;21.80;52.10;;;;;;5075304;28;20477;-88
2022/04/06 05:45:07;;;;;;;1.00;0.87;;;21.70;52.00;;;;;;5075328;28;20437;-87
2022/04/06 05:47:34;;;;;;;1.10;1.00;;;21.70;52.00;;;;;;5075487;28;20502;-87
2022/04/06 05:50:02;;;;;;;1.10;0.90;;;21.80;52.20;;;;;;5075229;28;20927;-88
2022/04/06 05:52:28;;;;;;;1.47;0.90;;;21.70;52.10;;;;;;5075516;28;20471;-87
2022/04/06 05:54:56;;;;;;;1.20;0.83;;;21.70;52.10;;;;;;5075277;28;20469;-87
2022/04/06 05:57:23;;;;;;;1.10;0.97;;;21.70;52.10;;;;;;5074953;28;20452;-87
2022/04/06 05:59:50;;;;;;;1.50;0.97;;;21.90;52.20;;;;;;5075243;28;20460;-87
2022/04/06 06:02:18;;;;;;;1.17;1.00;;;21.80;52.10;;;;;;5074734;28;20488;-87
2022/04/06 06:04:45;;;;;;;1.40;1.23;;;21.70;52.00;;;;;;5075256;28;20453;-86
2022/04/06 06:07:12;;;;;;;1.57;0.90;;;21.70;52.00;;;;;;5075071;28;20445;-87
2022/04/06 06:09:39;;;;;;;1.10;0.87;;;21.70;52.00;;;;;;5074688;28;20464;-87
2022/04/06 06:12:07;;;;;;;1.10;0.90;;;21.70;52.60;;;;;;5075235;28;20830;-87
2022/04/06 06:14:34;;;;;;;1.10;1.00;;;21.70;52.00;;;;;;5074927;28;20441;-87
2022/04/06 06:17:01;;;;;;;1.10;0.80;;;21.70;52.00;;;;;;5074937;28;20812;-87
2022/04/06 06:19:28;;;;;;;1.20;1.00;;;21.70;52.00;;;;;;5074761;28;20447;-87
2022/04/06 06:21:54;;;;;;;1.20;0.90;;;21.70;52.00;;;;;;5074567;28;20975;-86
2022/04/06 06:24:21;;;;;;;0.97;0.80;;;21.70;52.10;;;;;;5074487;28;20468;-85
2022/04/06 06:26:49;;;;;;;1.00;0.80;;;21.70;52.00;;;;;;5074630;28;20436;-89
2022/04/06 06:29:17;;;;;;;2.37;1.43;;;21.70;52.30;;;;;;5075100;28;20444;-87
2022/04/06 06:31:44;;;;;;;1.80;0.90;;;21.60;52.20;;;;;;5074492;28;20448;-88
2022/04/06 06:34:11;;;;;;;3.97;1.30;;;21.60;52.20;;;;;;5074534;28;20440;-86
2022/04/06 06:36:38;;;;;;;1.17;0.93;;;21.60;52.60;;;;;;5074815;28;20515;-87
2022/04/06 06:39:05;;;;;;;4.60;1.10;;;21.60;52.50;;;;;;5074728;28;20489;-88
2022/04/06 06:41:32;;;;;;;5.53;1.10;;;21.60;52.40;;;;;;5074532;28;20441;-85
2022/04/06 06:43:59;;;;;;;3.60;1.10;;;21.60;52.60;;;;;;5074545;28;20452;-84
2022/04/06 06:46:27;;;;;;;1.30;0.80;;;21.60;52.70;;;;;;5074473;28;20441;-84
2022/04/06 06:49:00;;;;;;;1.20;1.00;;;21.70;52.70;;;;;;5074279;28;20447;-85
2022/04/06 06:51:29;;;;;;;1.37;0.90;;;21.80;52.80;;;;;;5074241;28;20429;-85
2022/04/06 06:53:55;;;;;;;3.50;1.33;;;21.70;52.90;;;;;;5074053;28;20472;-86
2022/04/06 06:56:22;;;;;;;10.30;1.17;;;21.70;53.10;;;;;;5074427;28;20444;-89
2022/04/06 06:58:49;;;;;;;1.37;1.00;;;21.70;52.80;;;;;;5074215;28;20927;-85
2022/04/06 07:01:15;;;;;;;1.50;1.00;;;21.80;53.00;;;;;;5074342;28;20441;-83
2022/04/06 07:03:43;;;;;;;1.63;1.20;;;21.70;53.00;;;;;;5073985;28;20488;-88
2022/04/06 07:06:10;;;;;;;2.33;1.00;;;21.70;53.10;;;;;;5073795;28;20443;-87
2022/04/06 07:08:37;;;;;;;2.63;1.00;;;21.70;53.10;;;;;;5074098;28;20449;-90
2022/04/06 07:11:04;;;;;;;1.93;1.17;;;21.70;53.00;;;;;;5073968;28;20472;-89
2022/04/06 07:13:31;;;;;;;2.33;0.93;;;21.70;53.00;;;;;;5073593;28;20443;-89
2022/04/06 07:15:57;;;;;;;3.07;2.77;;;21.70;53.00;;;;;;5073893;28;20443;-89
2022/04/06 07:18:24;;;;;;;11.47;10.40;;;21.70;53.10;;;;;;5073927;28;20433;-90
2022/04/06 07:20:52;;;;;;;20.57;18.73;;;21.70;52.90;;;;;;5073874;28;20448;-91
2022/04/06 07:23:19;;;;;;;16.10;14.70;;;21.80;53.30;;;;;;5074774;28;20563;-91
2022/04/06 07:25:46;;;;;;;16.33;11.60;;;22.00;53.30;;;;;;5073682;28;20465;-91
2022/04/06 07:28:12;;;;;;;13.00;11.80;;;21.80;53.00;;;;;;5073799;28;20447;-91
2022/04/06 07:30:39;;;;;;;14.27;11.93;;;21.80;53.10;;;;;;5074044;28;20437;-91
2022/04/06 07:33:09;;;;;;;12.77;11.67;;;21.90;53.50;;;;;;5074041;28;20445;-91
2022/04/06 07:35:37;;;;;;;12.57;11.47;;;21.80;53.60;;;;;;5073622;28;20455;-91
2022/04/06 07:38:06;;;;;;;11.90;10.80;;;22.00;53.50;;;;;;5073801;28;20467;-89
2022/04/06 07:40:32;;;;;;;12.03;10.93;;;21.90;53.70;;;;;;5074810;28;20441;-89
2022/04/06 07:42:59;;;;;;;11.67;10.50;;;21.90;53.60;;;;;;5073453;28;20496;-88
2022/04/06 07:45:26;;;;;;;11.43;10.40;;;22.10;53.50;;;;;;5071977;28;20522;-87
2022/04/06 07:47:55;;;;;;;10.00;9.00;;;22.00;53.80;;;;;;5073182;28;20449;-87
2022/04/06 07:50:23;;;;;;;10.67;9.77;;;22.00;53.90;;;;;;5073354;28;20785;-88
2022/04/06 07:52:50;;;;;;;10.17;9.27;;;22.20;54.00;;;;;;5073166;28;20456;-91
2022/04/06 07:55:19;;;;;;;10.07;9.00;;;22.10;53.70;;;;;;5073884;28;20460;-89
2022/04/06 07:57:45;;;;;;;9.93;8.97;;;22.10;54.00;;;;;;5073303;28;20441;-87
2022/04/06 08:00:15;;;;;;;8.73;7.93;;;22.10;54.00;;;;;;5075605;28;20795;-96
2022/04/06 08:02:43;;;;;;;8.13;7.33;;;22.10;54.60;;;;;;5080014;28;20544;-91
2022/04/06 08:05:10;;;;;;;8.83;7.90;;;22.10;54.10;;;;;;5073035;28;20440;-85
2022/04/06 08:07:39;;;;;;;8.13;7.40;;;22.30;54.00;;;;;;5073029;28;20460;-85
2022/04/06 08:10:08;;;;;;;7.50;6.93;;;22.10;53.90;;;;;;5073165;28;20514;-90
2022/04/06 08:12:37;;;;;;;8.47;7.77;;;22.20;54.00;;;;;;5073036;28;20436;-86
2022/04/06 08:15:04;;;;;;;9.73;8.30;;;22.20;54.00;;;;;;5073488;28;20447;-90
2022/04/06 08:17:33;;;;;;;7.20;6.60;;;22.20;53.90;;;;;;5072952;28;20472;-91
2022/04/06 08:20:00;;;;;;;5.50;5.00;;;22.20;53.90;;;;;;5074042;28;20448;-91
2022/04/06 08:22:27;;;;;;;5.30;4.90;;;22.20;53.70;;;;;;5072824;28;20987;-87
2022/04/06 08:24:53;;;;;;;8.83;6.53;;;22.20;53.40;;;;;;5073432;28;20553;-88
2022/04/06 08:27:20;;;;;;;8.13;7.00;;;22.20;53.90;;;;;;5077114;28;20449;-86
2022/04/06 08:29:50;;;;;;;6.13;5.53;;;22.20;53.70;;;;;;5080530;28;20432;-88
2022/04/06 08:32:18;;;;;;;5.80;5.40;;;22.20;53.80;;;;;;5092305;28;20437;-92
2022/04/06 08:34:45;;;;;;;6.67;5.50;;;22.20;54.00;;;;;;5091265;28;20440;-87
2022/04/06 08:37:12;;;;;;;6.47;5.50;;;22.30;53.90;;;;;;5084307;28;20443;-86
2022/04/06 08:39:38;;;;;;;6.73;5.37;;;22.30;53.80;;;;;;5077172;28;20556;-88
2022/04/06 08:42:06;;;;;;;5.87;5.37;;;22.40;53.70;;;;;;5076401;28;20440;-89
2022/04/06 08:44:32;;;;;;;5.03;4.63;;;22.40;53.80;;;;;;5077362;28;20467;-88
2022/04/06 08:47:06;;;;;;;6.80;5.10;;;22.40;53.70;;;;;;5084672;28;20449;-88
2022/04/06 08:49:35;;;;;;;5.47;4.40;;;22.40;54.10;;;;;;5090277;28;20474;-88
2022/04/06 08:52:04;;;;;;;5.50;4.63;;;22.40;54.00;;;;;;5096818;28;20455;-91
2022/04/06 08:54:31;;;;;;;4.47;4.07;;;22.40;54.00;;;;;;5090563;28;20962;-90
2022/04/06 08:56:59;;;;;;;4.73;4.33;;;22.40;53.70;;;;;;5074222;28;20463;-86
2022/04/06 08:59:27;;;;;;;5.80;4.10;;;22.50;54.40;;;;;;5073112;28;20986;-87
2022/04/06 09:04:39;;;;;;;7.20;3.77;;;22.50;53.80;;;;;;5095864;28;20435;-88
2022/04/06 09:07:10;;;;;;;5.63;3.83;;;22.50;54.50;;;;;;5097684;28;20428;-89
2022/04/06 09:09:38;;;;;;;4.80;3.70;;;22.50;54.80;;;;;;5096950;28;20436;-91
2022/04/06 09:12:15;;;;;;;4.17;3.70;;;22.50;54.60;;;;;;5096869;28;20467;-90
2022/04/06 09:14:42;;;;;;;4.03;3.63;;;22.50;54.40;;;;;;5096282;28;20967;-84
2022/04/06 09:17:10;;;;;;;6.87;3.47;;;22.50;54.30;;;;;;5078052;28;20480;-84
2022/04/06 10:38:20;;;;;;;3.00;1.67;;;22.70;55.20;;;;;;5054998;28;20409;-89
2022/04/06 15:12:04;;;;;;;2.37;0.90;;;23.00;54.80;;;;;;5030650;28;20480;-83
2022/04/06 15:14:35;;;;;;;2.57;0.90;;;23.00;54.60;;;;;;5035669;28;20473;-93
2022/04/06 15:19:54;;;;;;;1.00;0.80;;;23.10;54.00;;;;;;5012437;28;21038;-89
2022/04/06 16:19:38;;;;;;;3.27;2.90;;;23.50;54.60;;;;;;4926969;28;20868;-82
2022/04/06 16:22:05;;;;;;;5.33;1.50;;;23.50;54.60;;;;;;4928846;29;20450;-92
2022/04/06 16:24:32;;;;;;;2.10;2.00;;;23.40;53.80;;;;;;4953398;29;20486;-92
2022/04/06 16:26:59;;;;;;;2.10;1.90;;;23.50;54.00;;;;;;4953703;29;20528;-92
2022/04/06 16:36:09;;;;;;;2.80;1.80;;;23.60;54.50;;;;;;4963251;28;20435;-92
2022/04/06 16:54:50;;;;;;;7.13;1.93;;;23.60;54.70;;;;;;4995132;28;20550;-92
